Date,TemperatureHighF,TemperatureAvgF,TemperatureLowF,DewpointHighF,DewpointAvgF,DewpointLowF,HumidityHigh,HumidityAvg,HumidityLow,PressureMaxIn,PressureMinIn,WindSpeedMaxMPH,WindSpeedAvgMPH,GustSpeedMaxMPH,PrecipitationSumIn
2013-3-1,52.3,41.1,34.9,21.0,16.9,13.7,54,38,28,29.85,29.76,11,3,11,0.00
2013-3-2,43.0,36.8,32.2,19.8,16.6,14.3,56,44,32,29.88,29.79,11,4,11,0.00
2013-3-3,42.4,33.5,28.9,17.6,14.0,10.9,60,45,29,29.82,29.73,10,5,10,0.00
2013-3-4,42.1,32.7,26.4,13.8,10.8,8.7,51,40,29,29.96,29.82,19,6,19,0.00
2013-3-5,48.4,35.8,26.4,20.0,14.3,10.2,59,42,28,30.20,29.96,13,3,13,0.00
2013-3-6,45.3,37.2,30.0,30.4,24.0,18.2,77,59,38,30.17,30.05,13,4,13,0.00
2013-3-7,42.1,34.1,31.3,29.1,24.1,17.1,88,68,38,30.14,30.05,13,4,13,0.04
2013-3-8,35.4,33.3,31.1,32.5,27.8,17.2,89,81,48,30.29,30.05,6,1,6,0.00
2013-3-9,56.3,38.3,26.2,17.3,14.7,10.4,63,40,20,30.47,30.26,10,2,10,0.51
2013-3-10,53.2,35.8,21.2,31.8,20.2,15.1,83,56,28,30.53,30.44,9,1,9,0.00
2013-3-11,56.1,43.3,34.7,37.9,28.9,24.5,77,59,35,30.47,30.26,6,1,6,0.00
2013-3-12,53.6,49.3,41.4,51.1,44.0,33.4,95,83,64,30.29,29.85,10,4,10,1.03
2013-3-13,46.6,37.1,31.8,39.4,21.4,11.7,89,55,27,29.96,29.91,10,2,10,0.00
2013-3-14,37.9,32.0,27.7,24.2,10.5,3.1,73,42,27,30.02,29.93,19,6,19,0.00
2013-3-15,47.8,33.7,24.4,19.6,8.7,0.1,56,36,22,30.05,29.85,14,5,14,0.00
2013-3-16,46.6,35.7,26.8,20.0,11.2,4.5,59,38,19,30.02,29.88,9,2,9,0.00
2013-3-17,40.3,31.0,23.5,20.6,5.4,-3.3,67,36,21,30.44,30.02,14,4,14,0.00
2013-3-18,44.2,29.8,18.1,22.2,4.6,-3.1,73,36,20,30.58,30.29,8,2,8,0.00
2013-3-19,43.7,35.0,30.0,33.8,27.0,22.2,82,73,54,30.29,29.76,10,3,10,0.40
2013-3-20,45.1,34.5,25.2,26.8,13.0,4.8,82,44,25,29.96,29.88,15,5,15,0.00
2013-3-21,38.5,31.4,25.9,18.8,16.8,10.3,68,55,31,29.82,29.76,6,1,6,0.00
2013-3-22,45.9,32.4,21.6,13.8,9.3,4.0,54,38,26,29.96,29.82,13,4,13,0.00
2013-3-23,47.1,36.6,27.1,16.1,11.4,6.1,58,37,22,29.99,29.85,17,5,17,0.00
2013-3-24,49.5,37.5,25.9,16.3,12.4,6.7,51,36,26,30.02,29.85,11,3,11,0.00
2013-3-25,49.3,38.4,30.6,20.3,16.7,14.0,61,42,27,29.91,29.58,10,2,10,0.00
2013-3-26,55.2,39.6,27.0,26.6,15.8,7.8,61,39,23,29.93,29.67,10,2,10,0.00
2013-3-27,57.0,35.7,23.5,16.4,12.6,9.6,65,42,20,30.02,29.93,11,1,11,0.00
2013-3-28,54.3,41.8,28.2,26.0,19.4,13.6,66,42,26,30.20,30.02,10,2,10,0.00
2013-3-29,61.7,46.1,30.4,29.9,19.9,13.8,72,38,19,30.23,30.14,10,3,10,0.00
2013-3-30,60.6,44.7,29.8,28.3,16.1,7.6,67,34,17,30.26,30.17,10,3,10,0.00
2013-3-31,61.9,43.9,26.4,38.4,20.4,11.2,76,42,19,30.26,29.79,11,2,11,0.12